createdAt,value
2018-09-20T00:00:50.907Z,20.27
2018-09-20T00:03:18.471Z,19.73
2018-09-20T00:05:46.060Z,17.80
2018-09-20T00:08:13.604Z,20.30
2018-09-20T00:10:41.190Z,20.43
2018-09-20T00:13:08.741Z,20.67
2018-09-20T00:15:36.306Z,20.77
2018-09-20T00:18:03.912Z,20.97
2018-09-20T00:20:31.526Z,20.90
2018-09-20T00:22:59.126Z,20.30
2018-09-20T00:25:26.690Z,21.10
2018-09-20T00:27:54.280Z,20.17
2018-09-20T00:30:21.879Z,21.07
2018-09-20T00:32:49.452Z,18.60
2018-09-20T00:35:17.062Z,17.93
2018-09-20T00:37:44.670Z,18.33
2018-09-20T00:40:12.224Z,20.03
2018-09-20T00:42:39.841Z,19.77
2018-09-20T00:45:07.503Z,17.83
2018-09-20T00:47:35.067Z,19.30
2018-09-20T00:50:02.708Z,20.50
2018-09-20T00:52:30.291Z,20.30
2018-09-20T00:54:57.866Z,18.63
2018-09-20T00:57:25.424Z,19.27
2018-09-20T00:59:52.951Z,19.00
2018-09-20T01:02:20.542Z,19.30
2018-09-20T01:04:48.122Z,19.33
2018-09-20T01:07:15.746Z,19.80
2018-09-20T01:09:43.292Z,19.10
2018-09-20T01:12:10.881Z,21.37
2018-09-20T01:14:38.478Z,19.20
2018-09-20T01:17:06.049Z,19.00
2018-09-20T01:19:33.630Z,18.07
2018-09-20T01:22:01.162Z,18.80
2018-09-20T01:24:28.768Z,18.70
2018-09-20T01:26:56.324Z,17.93
2018-09-20T01:29:23.874Z,17.63
2018-09-20T01:31:51.524Z,18.00
2018-09-20T01:34:19.095Z,17.87
2018-09-20T01:36:46.644Z,17.33
2018-09-20T01:39:15.803Z,17.77
2018-09-20T01:41:43.381Z,17.90
2018-09-20T01:44:11.596Z,18.67
2018-09-20T01:46:39.143Z,18.67
2018-09-20T01:49:07.478Z,18.77
2018-09-20T01:51:35.033Z,18.97
2018-09-20T01:54:02.640Z,17.97
2018-09-20T01:56:30.182Z,18.00
2018-09-20T01:58:57.762Z,18.13
2018-09-20T02:01:25.348Z,19.10
2018-09-20T02:03:52.950Z,18.63
2018-09-20T02:06:20.590Z,20.70
2018-09-20T02:08:48.144Z,16.83
2018-09-20T02:11:15.700Z,18.43
2018-09-20T02:13:43.277Z,17.83
2018-09-20T02:16:10.836Z,19.90
2018-09-20T02:18:38.420Z,18.10
2018-09-20T02:21:06.221Z,19.67
2018-09-20T02:23:33.806Z,18.73
2018-09-20T02:26:01.450Z,18.23
2018-09-20T02:28:29.006Z,17.80
2018-09-20T02:30:56.559Z,18.00
2018-09-20T02:33:24.210Z,19.00
2018-09-20T02:35:51.773Z,19.57
2018-09-20T02:38:19.325Z,17.93
2018-09-20T02:40:46.897Z,19.27
2018-09-20T02:43:14.446Z,18.80
2018-09-20T02:45:42.016Z,18.47
2018-09-20T02:48:09.583Z,18.37
2018-09-20T02:50:37.130Z,18.17
2018-09-20T02:53:05.036Z,19.23
2018-09-20T02:55:32.597Z,18.50
2018-09-20T02:58:00.186Z,16.73
2018-09-20T03:00:27.740Z,19.60
2018-09-20T03:02:55.317Z,19.20
2018-09-20T03:05:22.853Z,19.13
2018-09-20T03:07:50.403Z,19.70
2018-09-20T03:10:17.966Z,18.97
2018-09-20T03:12:45.520Z,17.67
2018-09-20T03:15:13.083Z,18.00
2018-09-20T03:17:40.653Z,17.97
2018-09-20T03:20:08.214Z,19.30
2018-09-20T03:22:35.840Z,21.03
2018-09-20T03:25:03.409Z,18.20
2018-09-20T03:27:30.961Z,17.80
2018-09-20T03:29:58.523Z,17.63
2018-09-20T03:32:26.166Z,18.83
2018-09-20T03:34:53.743Z,17.97
2018-09-20T03:37:21.306Z,18.73
2018-09-20T03:39:48.864Z,18.53
2018-09-20T03:42:16.454Z,18.23
2018-09-20T03:44:44.045Z,17.00
2018-09-20T03:47:11.695Z,18.90
2018-09-20T03:49:39.345Z,17.63
2018-09-20T03:52:06.891Z,18.33
2018-09-20T03:54:34.462Z,17.23
2018-09-20T03:57:02.024Z,15.97
2018-09-20T03:59:29.648Z,18.30
2018-09-20T04:01:57.237Z,18.67
2018-09-20T04:04:24.851Z,17.67
2018-09-20T04:06:52.490Z,18.73
2018-09-20T04:09:20.142Z,19.20
2018-09-20T04:11:47.714Z,18.90
2018-09-20T04:14:15.303Z,19.27
2018-09-20T04:16:42.896Z,19.33
2018-09-20T04:19:10.480Z,20.40
2018-09-20T04:21:38.058Z,17.60
2018-09-20T04:24:06.474Z,18.70
2018-09-20T04:26:34.215Z,18.70
2018-09-20T04:29:02.076Z,19.80
2018-09-20T04:31:30.349Z,18.40
2018-09-20T04:33:59.144Z,17.37
2018-09-20T04:36:26.748Z,17.97
2018-09-20T04:38:54.363Z,18.60
2018-09-20T04:41:21.919Z,19.57
2018-09-20T04:43:49.469Z,16.27
2018-09-20T04:46:17.008Z,15.97
2018-09-20T04:48:44.567Z,17.00
2018-09-20T04:51:12.141Z,16.57
2018-09-20T04:53:39.725Z,15.13
2018-09-20T04:56:07.305Z,15.50
2018-09-20T04:58:34.894Z,17.50
2018-09-20T05:01:02.521Z,17.50
2018-09-20T05:03:30.367Z,17.13
2018-09-20T05:05:57.980Z,18.13
2018-09-20T05:08:25.589Z,17.27
2018-09-20T05:11:31.433Z,19.23
2018-09-20T05:13:59.066Z,18.43
2018-09-20T05:16:26.689Z,20.03
2018-09-20T05:19:12.703Z,17.27
2018-09-20T05:21:40.322Z,17.83
2018-09-20T05:24:07.956Z,17.20
2018-09-20T05:26:35.618Z,18.07
2018-09-20T05:29:03.830Z,18.27
2018-09-20T05:31:31.457Z,16.27
2018-09-20T05:33:59.131Z,20.33
2018-09-20T05:36:26.754Z,16.80
2018-09-20T05:38:54.362Z,17.50
2018-09-20T05:41:22.034Z,17.27
2018-09-20T05:43:49.642Z,16.53
2018-09-20T05:46:17.288Z,18.80
2018-09-20T05:48:44.949Z,18.37
2018-09-20T05:51:12.591Z,18.03
2018-09-20T05:53:40.221Z,18.97
2018-09-20T05:56:07.819Z,23.97
2018-09-20T05:58:35.438Z,21.10
2018-09-20T06:01:03.061Z,23.30
2018-09-20T06:03:30.701Z,22.53
2018-09-20T06:05:58.380Z,20.00
2018-09-20T06:08:26.101Z,22.00
2018-09-20T06:10:53.730Z,24.93
2018-09-20T06:13:21.412Z,21.50
2018-09-20T06:15:49.050Z,23.40
2018-09-20T06:18:16.683Z,23.07
2018-09-20T06:20:44.302Z,27.23
2018-09-20T06:23:11.960Z,24.23
2018-09-20T06:25:39.573Z,26.47
2018-09-20T06:28:07.215Z,27.20
2018-09-20T06:30:35.200Z,25.93
2018-09-20T06:33:02.818Z,26.87
2018-09-20T06:35:30.803Z,27.20
2018-09-20T06:37:58.454Z,28.00
2018-09-20T06:40:26.098Z,27.87
2018-09-20T06:42:53.779Z,30.90
2018-09-20T06:45:21.407Z,28.53
2018-09-20T06:47:49.053Z,26.57
2018-09-20T06:50:16.728Z,34.33
2018-09-20T06:52:44.386Z,30.77
2018-09-20T06:55:12.043Z,26.53
2018-09-20T06:57:39.688Z,30.20
2018-09-20T07:00:07.799Z,31.00
2018-09-20T07:02:35.775Z,26.87
2018-09-20T07:05:04.296Z,29.83
2018-09-20T07:07:31.925Z,29.43
2018-09-20T07:09:59.835Z,27.97
2018-09-20T07:12:28.182Z,25.40
2018-09-20T07:14:55.848Z,24.80
2018-09-20T07:17:23.503Z,26.57
2018-09-20T07:19:51.320Z,25.00
2018-09-20T07:22:18.965Z,26.73
2018-09-20T07:24:46.641Z,25.03
2018-09-20T07:27:14.225Z,26.33
2018-09-20T07:29:41.885Z,25.40
2018-09-20T07:32:09.587Z,26.07
2018-09-20T07:34:37.228Z,26.53
2018-09-20T07:37:04.928Z,29.87
2018-09-20T07:39:32.543Z,24.80
2018-09-20T07:42:00.469Z,26.10
2018-09-20T07:44:28.884Z,22.93
2018-09-20T07:46:56.518Z,22.47
2018-09-20T07:49:24.188Z,26.27
2018-09-20T07:51:51.962Z,19.57
2018-09-20T07:54:19.820Z,22.53
2018-09-20T07:56:47.441Z,18.60
2018-09-20T07:59:15.079Z,17.50
2018-09-20T08:01:42.779Z,14.73
2018-09-20T08:04:10.382Z,16.57
2018-09-20T08:06:38.021Z,16.63
2018-09-20T08:09:06.883Z,16.10
2018-09-20T08:11:34.545Z,18.27
2018-09-20T08:14:02.657Z,16.10
2018-09-20T08:16:30.364Z,16.77
2018-09-20T08:18:57.989Z,16.40
2018-09-20T08:21:25.637Z,17.13
2018-09-20T08:23:53.245Z,16.13
2018-09-20T08:26:20.861Z,15.90
2018-09-20T08:28:48.634Z,17.37
2018-09-20T08:31:22.758Z,15.93
2018-09-20T08:33:50.378Z,14.60
2018-09-20T08:36:18.008Z,13.97
2018-09-20T08:38:45.602Z,15.67
2018-09-20T08:41:13.825Z,14.00
2018-09-20T08:43:41.462Z,13.50
2018-09-20T08:46:09.068Z,13.80
2018-09-20T08:48:36.707Z,14.23
2018-09-20T08:51:04.368Z,13.90
2018-09-20T08:53:31.993Z,14.57
2018-09-20T08:55:59.632Z,14.87
2018-09-20T08:58:29.967Z,14.90
2018-09-20T09:00:57.584Z,13.43
2018-09-20T09:03:25.165Z,13.40
2018-09-20T09:05:52.832Z,13.63
2018-09-20T09:08:20.480Z,13.80
2018-09-20T09:10:48.088Z,13.70
2018-09-20T09:13:15.711Z,13.37
2018-09-20T09:15:43.368Z,13.60
2018-09-20T09:18:11.627Z,14.47
2018-09-20T09:20:39.269Z,14.70
2018-09-20T09:23:06.884Z,14.13
2018-09-20T09:25:34.543Z,13.23
2018-09-20T09:28:02.180Z,14.10
2018-09-20T09:30:29.810Z,14.00
2018-09-20T09:32:57.380Z,14.00
2018-09-20T09:35:25.008Z,14.73
2018-09-20T09:37:52.600Z,14.23
2018-09-20T09:40:20.189Z,14.67
2018-09-20T09:42:47.727Z,14.87
2018-09-20T09:45:15.347Z,13.60
2018-09-20T09:47:42.986Z,14.03
2018-09-20T09:50:10.630Z,14.33
2018-09-20T09:52:38.334Z,15.43
2018-09-20T09:55:05.942Z,15.97
2018-09-20T09:57:33.856Z,14.90
2018-09-20T10:00:01.527Z,16.40
2018-09-20T10:02:29.222Z,20.93
2018-09-20T10:04:57.605Z,14.97
2018-09-20T10:07:25.229Z,16.23
2018-09-20T10:09:52.845Z,13.83
2018-09-20T10:12:20.491Z,15.00
2018-09-20T10:14:48.880Z,15.70
2018-09-20T10:17:16.539Z,14.73
2018-09-20T10:19:44.134Z,15.17
2018-09-20T10:22:11.748Z,15.93
2018-09-20T10:24:39.377Z,15.07
2018-09-20T10:27:06.960Z,15.90
2018-09-20T10:29:34.579Z,15.70
2018-09-20T10:32:02.208Z,13.97
2018-09-20T10:34:29.815Z,14.77
2018-09-20T10:36:57.438Z,15.50
2018-09-20T10:39:25.075Z,15.63
2018-09-20T10:41:52.717Z,16.87
2018-09-20T10:44:20.368Z,14.93
2018-09-20T10:46:47.985Z,15.50
2018-09-20T10:49:15.613Z,13.30
2018-09-20T10:51:43.246Z,14.27
2018-09-20T10:54:10.894Z,13.07
2018-09-20T10:56:38.506Z,14.50
2018-09-20T10:59:06.157Z,16.00
2018-09-20T11:01:34.022Z,15.37
2018-09-20T11:04:01.608Z,14.13
2018-09-20T11:06:29.225Z,13.60
2018-09-20T11:08:56.860Z,13.40
2018-09-20T11:11:24.477Z,12.97
2018-09-20T11:13:52.097Z,13.47
2018-09-20T11:16:19.696Z,13.03
2018-09-20T11:18:47.330Z,13.97
2018-09-20T11:21:14.920Z,12.70
2018-09-20T11:23:42.527Z,13.47
2018-09-20T11:26:10.142Z,12.00
2018-09-20T11:28:37.797Z,11.17
2018-09-20T11:31:05.450Z,10.83
2018-09-20T11:33:33.029Z,12.17
2018-09-20T11:36:00.707Z,11.20
2018-09-20T11:38:28.354Z,10.60
2018-09-20T11:40:55.957Z,11.50
2018-09-20T11:43:23.590Z,11.17
2018-09-20T11:45:51.220Z,11.83
2018-09-20T11:48:18.830Z,10.00
2018-09-20T11:50:46.459Z,10.93
2018-09-20T11:53:14.085Z,13.00
2018-09-20T11:55:41.687Z,11.73
2018-09-20T11:58:10.149Z,11.70
2018-09-20T12:00:37.766Z,11.30
2018-09-20T12:03:05.428Z,11.50
2018-09-20T12:05:33.147Z,10.70
2018-09-20T12:08:00.791Z,11.23
2018-09-20T12:10:28.417Z,11.63
2018-09-20T12:12:56.040Z,10.53
2018-09-20T12:15:23.641Z,12.63
2018-09-20T12:17:51.253Z,9.33
2018-09-20T12:20:18.878Z,10.63
2018-09-20T12:22:46.468Z,11.50
2018-09-20T12:25:14.052Z,10.10
2018-09-20T12:27:41.641Z,9.13
2018-09-20T12:30:09.217Z,9.23
2018-09-20T12:32:36.789Z,9.37
2018-09-20T12:35:04.539Z,9.90
2018-09-20T12:37:38.984Z,11.30
2018-09-20T12:40:07.639Z,9.77
2018-09-20T12:42:36.077Z,12.50
2018-09-20T12:45:03.760Z,11.10
2018-09-20T12:47:31.701Z,9.57
2018-09-20T12:49:59.425Z,9.40
2018-09-20T12:52:27.140Z,10.37
2018-09-20T12:54:55.437Z,8.67
2018-09-20T12:57:23.377Z,8.20
2018-09-20T12:59:50.971Z,7.80
2018-09-20T13:02:18.841Z,8.40
2018-09-20T13:04:46.531Z,8.40
2018-09-20T13:07:14.151Z,9.77
2018-09-20T13:09:42.142Z,9.20
2018-09-20T13:12:09.776Z,8.63
2018-09-20T13:14:37.996Z,9.93
2018-09-20T13:17:05.961Z,8.73
2018-09-20T13:19:33.613Z,11.60
2018-09-20T13:22:01.225Z,9.73
2018-09-20T13:24:28.841Z,9.07
2018-09-20T13:26:56.453Z,8.10
2018-09-20T13:29:24.057Z,8.67
2018-09-20T13:31:51.740Z,7.90
2018-09-20T13:34:19.279Z,8.77
2018-09-20T13:36:46.893Z,10.30
2018-09-20T13:39:14.519Z,9.90
2018-09-20T13:41:42.125Z,16.37
2018-09-20T13:44:09.745Z,12.80
2018-09-20T13:46:37.329Z,9.87
2018-09-20T13:49:04.984Z,11.83
2018-09-20T13:51:32.771Z,7.73
2018-09-20T13:54:00.426Z,8.40
2018-09-20T13:56:28.496Z,7.17
2018-09-20T13:58:56.082Z,8.80
2018-09-20T14:01:23.674Z,9.00
2018-09-20T14:03:51.265Z,8.27
2018-09-20T14:06:18.913Z,8.63
2018-09-20T14:08:47.246Z,7.93
2018-09-20T14:11:14.836Z,8.30
2018-09-20T14:13:42.441Z,8.40
2018-09-20T14:16:10.126Z,7.63
2018-09-20T14:18:37.779Z,8.20
2018-09-20T14:21:05.458Z,7.50
2018-09-20T14:23:33.099Z,8.53
2018-09-20T14:26:00.762Z,8.23
2018-09-20T14:28:28.316Z,8.47
2018-09-20T14:30:55.911Z,7.80
2018-09-20T14:33:23.512Z,7.70
2018-09-20T14:35:51.124Z,8.23
2018-09-20T14:38:18.729Z,9.00
2018-09-20T14:40:46.343Z,8.40
2018-09-20T14:43:14.045Z,8.63
2018-09-20T14:45:41.687Z,9.70
2018-09-20T14:48:09.322Z,8.73
2018-09-20T14:50:36.934Z,8.10
2018-09-20T14:53:04.614Z,8.93
2018-09-20T14:55:32.236Z,8.37
2018-09-20T14:57:59.791Z,9.10
2018-09-20T15:00:27.499Z,9.97
2018-09-20T15:02:55.093Z,9.63
2018-09-20T15:05:22.690Z,9.30
2018-09-20T15:07:50.290Z,13.63
2018-09-20T15:10:17.924Z,8.80
2018-09-20T15:12:45.501Z,8.60
2018-09-20T15:15:13.201Z,9.17
2018-09-20T15:17:40.781Z,9.37
2018-09-20T15:20:08.369Z,15.37
2018-09-20T15:22:36.003Z,9.50
2018-09-20T15:25:03.689Z,8.87
2018-09-20T15:27:31.299Z,10.00
2018-09-20T15:29:58.879Z,12.33
2018-09-20T15:32:26.523Z,16.50
2018-09-20T15:34:54.225Z,10.23
2018-09-20T15:37:21.823Z,10.90
2018-09-20T15:39:49.455Z,12.33
2018-09-20T15:42:17.053Z,11.90
2018-09-20T15:44:44.701Z,11.73
2018-09-20T15:47:12.387Z,12.90
2018-09-20T15:52:19.785Z,10.77
2018-09-20T15:54:47.404Z,11.17
2018-09-20T15:57:15.000Z,11.00
2018-09-20T15:59:42.610Z,12.87
2018-09-20T16:02:10.896Z,13.30
2018-09-20T16:04:38.516Z,12.40
2018-09-20T16:07:06.152Z,14.20
2018-09-20T16:09:33.761Z,11.90
2018-09-20T16:12:01.401Z,12.57
2018-09-20T16:14:29.006Z,12.80
2018-09-20T16:16:56.580Z,14.20
2018-09-20T16:19:24.232Z,13.57
2018-09-20T16:21:51.838Z,13.47
2018-09-20T16:24:19.436Z,14.53
2018-09-20T16:26:47.125Z,13.10
2018-09-20T16:31:24.783Z,12.10
2018-09-20T16:33:58.438Z,13.97
2018-09-20T16:36:29.819Z,20.07
2018-09-20T16:39:00.418Z,14.17
2018-09-20T16:41:30.730Z,12.57
2018-09-20T16:43:58.376Z,12.63
2018-09-20T16:46:25.982Z,15.50
2018-09-20T16:48:53.622Z,11.87
2018-09-20T16:51:21.259Z,12.03
2018-09-20T16:53:48.839Z,12.77
2018-09-20T16:56:16.445Z,13.07
2018-09-20T16:58:50.329Z,11.60
2018-09-20T17:01:18.437Z,13.20
2018-09-20T17:03:46.149Z,12.40
2018-09-20T17:06:13.748Z,13.03
2018-09-20T17:08:41.365Z,12.40
2018-09-20T17:11:08.948Z,15.40
2018-09-20T17:13:36.559Z,32.30
2018-09-20T17:16:04.235Z,33.47
2018-09-20T17:18:31.811Z,49.43
2018-09-20T17:20:59.450Z,49.70
2018-09-20T17:23:27.100Z,39.30
2018-09-20T17:25:54.707Z,40.27
2018-09-20T17:28:22.337Z,40.83
2018-09-20T17:30:50.093Z,39.47
2018-09-20T17:33:17.741Z,43.07
2018-09-20T17:35:45.452Z,35.60
2018-09-20T17:38:13.428Z,24.37
2018-09-20T17:40:42.814Z,18.67
2018-09-20T17:43:14.233Z,16.63
2018-09-20T17:45:42.101Z,14.40
2018-09-20T17:48:09.790Z,15.80
2018-09-20T17:50:37.525Z,15.87
2018-09-20T17:53:05.586Z,17.13
2018-09-20T17:55:33.350Z,17.63
2018-09-20T17:58:01.467Z,15.47
2018-09-20T18:00:29.285Z,19.33
2018-09-20T18:02:57.300Z,14.30
2018-09-20T18:05:25.214Z,15.50
2018-09-20T18:07:53.755Z,15.27
2018-09-20T18:10:21.581Z,17.47
2018-09-20T18:12:49.219Z,14.50
2018-09-20T18:15:16.899Z,13.80
2018-09-20T18:17:44.610Z,16.00
2018-09-20T18:20:12.277Z,14.17
2018-09-20T18:22:39.890Z,13.60
2018-09-20T18:25:07.520Z,14.70
2018-09-20T18:27:35.150Z,14.23
2018-09-20T18:30:02.786Z,13.73
2018-09-20T18:32:30.446Z,13.83
2018-09-20T18:34:58.065Z,14.53
2018-09-20T18:37:25.861Z,14.77
2018-09-20T18:39:53.512Z,14.57
2018-09-20T18:42:21.132Z,22.03
2018-09-20T18:44:48.817Z,14.03
2018-09-20T18:47:16.436Z,14.77
2018-09-20T18:49:44.109Z,14.00
2018-09-20T18:52:11.728Z,16.27
2018-09-20T18:54:39.354Z,14.17
2018-09-20T18:57:07.060Z,14.27
2018-09-20T18:59:34.718Z,14.97
2018-09-20T19:02:02.421Z,13.90
2018-09-20T19:04:30.089Z,14.37
2018-09-20T19:07:02.092Z,15.00
2018-09-20T19:09:30.537Z,15.10
2018-09-20T19:11:58.157Z,13.93
2018-09-20T19:14:25.788Z,15.27
2018-09-20T19:16:53.411Z,15.13
2018-09-20T19:19:21.204Z,15.73
2018-09-20T19:21:48.854Z,14.90
2018-09-20T19:24:16.534Z,15.43
2018-09-20T19:26:44.245Z,15.57
2018-09-20T19:29:12.245Z,15.50
2018-09-20T19:31:39.987Z,16.13
2018-09-20T19:34:07.733Z,13.80
2018-09-20T19:36:35.624Z,16.07
2018-09-20T19:39:04.424Z,14.60
2018-09-20T19:41:32.119Z,14.37
2018-09-20T19:43:59.752Z,17.00
2018-09-20T19:46:27.458Z,15.20
2018-09-20T19:48:55.127Z,15.80
2018-09-20T19:51:22.759Z,15.27
2018-09-20T19:53:50.456Z,19.47
2018-09-20T19:56:18.283Z,15.27
2018-09-20T19:58:46.009Z,15.50
2018-09-20T20:01:13.682Z,15.03
2018-09-20T20:03:41.316Z,16.23
2018-09-20T20:06:08.958Z,14.77
2018-09-20T20:08:36.603Z,16.07
2018-09-20T20:11:04.317Z,16.40
2018-09-20T20:13:32.155Z,15.47
2018-09-20T20:15:59.961Z,16.30
2018-09-20T20:18:27.804Z,18.37
2018-09-20T20:20:55.556Z,16.73
2018-09-20T20:23:23.256Z,15.50
2018-09-20T20:25:51.035Z,15.95
2018-09-20T20:28:18.681Z,16.60
2018-09-20T20:30:46.373Z,17.43
2018-09-20T20:33:14.004Z,15.90
2018-09-20T20:35:41.675Z,16.87
2018-09-20T20:38:09.425Z,16.90
2018-09-20T20:40:37.121Z,16.83
2018-09-20T20:43:04.854Z,16.83
2018-09-20T20:45:32.510Z,17.80
2018-09-20T20:48:00.206Z,15.40
2018-09-20T20:50:27.881Z,15.03
2018-09-20T20:52:55.464Z,16.77
2018-09-20T20:55:23.100Z,16.73
2018-09-20T20:57:50.773Z,16.10
2018-09-20T21:00:18.451Z,15.80
2018-09-20T21:02:46.110Z,17.90
2018-09-20T21:05:13.791Z,17.67
2018-09-20T21:07:41.438Z,18.23
2018-09-20T21:10:09.101Z,16.97
2018-09-20T21:12:36.708Z,16.67
2018-09-20T21:15:04.423Z,16.07
2018-09-20T21:17:32.108Z,16.00
2018-09-20T21:19:59.727Z,16.40
2018-09-20T21:22:27.359Z,17.67
2018-09-20T21:24:55.010Z,15.63
2018-09-20T21:27:22.610Z,16.47
2018-09-20T21:29:50.198Z,16.30
2018-09-20T21:32:17.820Z,18.10
2018-09-20T21:34:45.427Z,19.43
2018-09-20T21:37:13.005Z,17.10
2018-09-20T21:39:40.720Z,17.03
2018-09-20T21:42:08.302Z,19.20
2018-09-20T21:44:35.917Z,18.83
2018-09-20T21:47:03.553Z,18.30
2018-09-20T21:49:31.207Z,16.93
2018-09-20T21:51:58.843Z,16.10
2018-09-20T21:54:26.490Z,17.27
2018-09-20T21:56:54.147Z,17.20
2018-09-20T21:59:21.737Z,17.40
2018-09-20T22:02:05.941Z,17.50
2018-09-20T22:04:34.149Z,17.50
2018-09-20T22:07:01.764Z,17.47
2018-09-20T22:09:29.924Z,16.37
2018-09-20T22:11:57.602Z,18.23
2018-09-20T22:14:25.259Z,16.63
2018-09-20T22:16:52.907Z,18.87
2018-09-20T22:19:20.605Z,17.50
2018-09-20T22:21:48.219Z,18.20
2018-09-20T22:24:15.886Z,18.23
2018-09-20T22:26:43.537Z,17.33
2018-09-20T22:29:11.138Z,17.43
2018-09-20T22:31:38.768Z,18.30
2018-09-20T22:34:06.392Z,17.10
2018-09-20T22:36:33.988Z,17.37
2018-09-20T22:39:01.636Z,16.90
2018-09-20T22:41:29.297Z,16.13
2018-09-20T22:43:56.911Z,18.27
2018-09-20T22:46:24.504Z,16.97
2018-09-20T22:48:52.120Z,16.70
2018-09-20T22:51:19.761Z,15.87
2018-09-20T22:53:47.362Z,17.87
2018-09-20T22:56:14.959Z,18.00
2018-09-20T22:58:42.546Z,17.37
2018-09-20T23:01:14.455Z,16.90
2018-09-20T23:03:42.261Z,16.53
2018-09-20T23:06:09.888Z,17.87
2018-09-20T23:08:37.478Z,19.23
2018-09-20T23:11:05.096Z,18.13
2018-09-20T23:13:32.734Z,21.03
2018-09-20T23:16:00.336Z,16.40
2018-09-20T23:18:27.940Z,17.97
2018-09-20T23:20:55.566Z,17.53
2018-09-20T23:23:23.175Z,18.17
2018-09-20T23:25:50.796Z,17.77
2018-09-20T23:28:18.375Z,17.03
2018-09-20T23:30:46.018Z,17.20
2018-09-20T23:33:13.647Z,18.13
2018-09-20T23:35:41.297Z,18.30
2018-09-20T23:38:08.898Z,16.93
2018-09-20T23:40:36.561Z,18.07
2018-09-20T23:43:04.393Z,17.70
2018-09-20T23:45:31.998Z,17.93
2018-09-20T23:47:59.645Z,17.80
2018-09-20T23:50:27.265Z,17.37
2018-09-20T23:52:54.881Z,18.40
2018-09-20T23:55:22.488Z,17.20
2018-09-20T23:57:50.070Z,17.90
